^^
Your Local Weather - Clay, NY Station Historical Data
Daily Summary for August 28, 2017 Units:  English    Metric   Both
« Previous Day
Next Day »
Daily Weekly Monthly Yearly Custom
  High: Low: Average:
Temperature: 72.3 °F 51.2 °F 61.5 °F
Dew Point: 58.6 °F 48.4 °F 53.6 °F
Humidity: 91% 56% 76%
Wind Speed: 3.0mph 0.0mph 0.8mph
Wind Gust: 7.0mph - -
Wind- - East
Pressure: 30.28 in 30.19 in -
Precipitation: 0.00 in    
Historical Graphs
 
 
Tabular Data for August 28, 2017
Time Temperature Dew Point Pressure Wind Wind Speed Wind Gust Humidity Rainfall Rate (Hourly) solar
00:04 54.5 °F 51.3 °F 30.22 in Calm     89% 0.00 in 0 W/m2
00:10 54.5 °F 51.3 °F 30.21 in Calm     89% 0.00 in 0 W/m2
00:16 54.4 °F 51.2 °F 30.21 in Calm     89% 0.00 in 0 W/m2
00:22 54.3 °F 51.1 °F 30.21 in Calm     89% 0.00 in 0 W/m2
00:28 54.1 °F 50.9 °F 30.21 in Calm     89% 0.00 in 0 W/m2
00:34 54.0 °F 50.8 °F 30.21 in Calm     89% 0.00 in 0 W/m2
00:40 53.8 °F 50.6 °F 30.21 in Calm     89% 0.00 in 0 W/m2
00:46 53.7 °F 50.5 °F 30.21 in Calm     89% 0.00 in 0 W/m2
00:52 53.5 °F 50.3 °F 30.21 in Calm     89% 0.00 in 0 W/m2
00:58 53.4 °F 50.2 °F 30.21 in Calm     89% 0.00 in 0 W/m2
01:04 53.5 °F 50.3 °F 30.21 in Calm     89% 0.00 in 0 W/m2
01:10 53.4 °F 50.2 °F 30.21 in Calm     89% 0.00 in 0 W/m2
01:16 53.4 °F 50.2 °F 30.20 in Calm     89% 0.00 in 0 W/m2
01:22 53.4 °F 50.2 °F 30.21 in Calm     89% 0.00 in 0 W/m2
01:28 53.4 °F 50.2 °F 30.20 in Calm     89% 0.00 in 0 W/m2
01:34 53.6 °F 50.7 °F 30.21 in Calm     90% 0.00 in 0 W/m2
01:40 53.8 °F 50.9 °F 30.21 in Calm     90% 0.00 in 0 W/m2
01:46 54.3 °F 51.4 °F 30.20 in Calm     90% 0.00 in 0 W/m2
01:52 54.5 °F 51.3 °F 30.20 in ENE 1.0 mph 1.0 mph 89% 0.00 in 0 W/m2
01:58 54.6 °F 51.4 °F 30.20 in East 1.0 mph 1.0 mph 89% 0.00 in 0 W/m2
02:04 54.6 °F 51.4 °F 30.20 in Calm   2.0 mph 89% 0.00 in 0 W/m2
02:12 54.5 °F 51.3 °F 30.20 in Calm   1.0 mph 89% 0.00 in 0 W/m2
02:18 54.4 °F 51.2 °F 30.20 in Calm   1.0 mph 89% 0.00 in 0 W/m2
02:24 54.2 °F 51.0 °F 30.20 in Calm     89% 0.00 in 0 W/m2
02:30 54.2 °F 51.0 °F 30.20 in Calm     89% 0.00 in 0 W/m2
02:36 54.2 °F 51.3 °F 30.20 in Calm   1.0 mph 90% 0.00 in 0 W/m2
02:42 54.2 °F 51.3 °F 30.20 in Calm   1.0 mph 90% 0.00 in 0 W/m2
02:48 54.0 °F 51.1 °F 30.20 in Calm   1.0 mph 90% 0.00 in 0 W/m2
02:54 53.9 °F 51.0 °F 30.20 in Calm     90% 0.00 in 0 W/m2
03:00 53.8 °F 50.9 °F 30.21 in Calm     90% 0.00 in 0 W/m2
03:06 53.7 °F 50.8 °F 30.21 in Calm     90% 0.00 in 0 W/m2
03:12 53.5 °F 50.6 °F 30.20 in Calm     90% 0.00 in 0 W/m2
03:18 53.4 °F 50.5 °F 30.20 in Calm     90% 0.00 in 0 W/m2
03:24 53.3 °F 50.4 °F 30.20 in Calm     90% 0.00 in 0 W/m2
03:30 53.2 °F 50.3 °F 30.20 in Calm     90% 0.00 in 0 W/m2
03:36 53.0 °F 50.1 °F 30.20 in Calm   1.0 mph 90% 0.00 in 0 W/m2
03:42 53.0 °F 50.4 °F 30.20 in Calm   2.0 mph 91% 0.00 in 0 W/m2
03:48 53.1 °F 50.5 °F 30.20 in Calm   2.0 mph 91% 0.00 in 0 W/m2
03:54 53.1 °F 50.5 °F 30.20 in Calm     91% 0.00 in 0 W/m2
04:00 53.0 °F 50.4 °F 30.20 in Calm     91% 0.00 in 0 W/m2
04:06 52.8 °F 49.9 °F 30.20 in Calm     90% 0.00 in 0 W/m2
04:12 52.6 °F 50.0 °F 30.20 in Calm     91% 0.00 in 0 W/m2
04:18 52.6 °F 50.0 °F 30.20 in Calm     91% 0.00 in 0 W/m2
04:24 52.7 °F 50.1 °F 30.21 in Calm   1.0 mph 91% 0.00 in 0 W/m2
04:30 52.6 °F 50.0 °F 30.21 in Calm     91% 0.00 in 0 W/m2
04:36 52.6 °F 50.0 °F 30.21 in Calm   1.0 mph 91% 0.00 in 0 W/m2
04:42 52.7 °F 50.1 °F 30.21 in East 1.0 mph 1.0 mph 91% 0.00 in 0 W/m2
04:48 52.8 °F 49.9 °F 30.21 in East 1.0 mph 1.0 mph 90% 0.00 in 0 W/m2
04:54 52.7 °F 49.5 °F 30.21 in Calm     89% 0.00 in 0 W/m2
05:00 52.6 °F 49.4 °F 30.21 in Calm     89% 0.00 in 0 W/m2
05:06 52.3 °F 49.2 °F 30.22 in Calm   1.0 mph 89% 0.00 in 0 W/m2
05:12 52.3 °F 49.2 °F 30.22 in Calm     89% 0.00 in 0 W/m2
05:18 52.2 °F 49.1 °F 30.22 in Calm     89% 0.00 in 0 W/m2
05:24 52.3 °F 49.2 °F 30.22 in Calm   1.0 mph 89% 0.00 in 0 W/m2
05:30 52.2 °F 48.8 °F 30.22 in Calm     88% 0.00 in 0 W/m2
05:36 52.1 °F 48.7 °F 30.22 in Calm     88% 0.00 in 0 W/m2
05:42 52.1 °F 49.0 °F 30.22 in Calm     89% 0.00 in 0 W/m2
05:48 51.9 °F 48.8 °F 30.22 in Calm     89% 0.00 in 0 W/m2
05:54 51.8 °F 48.7 °F 30.23 in Calm     89% 0.00 in 0 W/m2
06:00 51.6 °F 48.5 °F 30.23 in Calm     89% 0.00 in 0 W/m2
06:06 51.5 °F 48.4 °F 30.23 in Calm     89% 0.00 in 0 W/m2
06:12 51.4 °F 48.6 °F 30.23 in Calm     90% 0.00 in 0 W/m2
06:18 51.3 °F 48.5 °F 30.23 in Calm     90% 0.00 in 0 W/m2
06:24 51.3 °F 48.5 °F 30.23 in Calm     90% 0.00 in 5 W/m2
06:30 51.2 °F 48.4 °F 30.23 in Calm     90% 0.00 in 7 W/m2
06:36 51.3 °F 48.8 °F 30.24 in Calm     91% 0.00 in 12 W/m2
06:42 51.4 °F 48.9 °F 30.24 in Calm     91% 0.00 in 16 W/m2
06:48 51.5 °F 49.0 °F 30.25 in Calm     91% 0.00 in 21 W/m2
06:54 51.6 °F 48.8 °F 30.25 in Calm     90% 0.00 in 26 W/m2
07:00 51.7 °F 48.9 °F 30.25 in Calm     90% 0.00 in 32 W/m2
07:06 51.9 °F 49.1 °F 30.25 in Calm     90% 0.00 in 37 W/m2
07:12 52.2 °F 49.1 °F 30.25 in East 1.0 mph 2.0 mph 89% 0.00 in 53 W/m2
07:18 52.5 °F 49.0 °F 30.25 in East 1.0 mph 2.0 mph 88% 0.00 in 49 W/m2
07:24 52.8 °F 49.3 °F 30.26 in Calm   1.0 mph 88% 0.00 in 51 W/m2
07:30 53.1 °F 49.3 °F 30.26 in East 1.0 mph 1.0 mph 87% 0.00 in 54 W/m2
07:36 53.3 °F 49.2 °F 30.26 in Calm   1.0 mph 86% 0.00 in 114 W/m2
07:42 53.6 °F 49.5 °F 30.26 in Calm   1.0 mph 86% 0.00 in 63 W/m2
07:48 53.8 °F 49.4 °F 30.26 in NE 1.0 mph 2.0 mph 85% 0.00 in 98 W/m2
07:54 53.9 °F 49.2 °F 30.26 in ENE 2.0 mph 2.0 mph 84% 0.00 in 79 W/m2
08:00 54.2 °F 49.5 °F 30.26 in ENE 1.0 mph 1.0 mph 84% 0.00 in 105 W/m2
08:06 54.6 °F 49.9 °F 30.26 in ENE 1.0 mph 2.0 mph 84% 0.00 in 186 W/m2
08:12 55.2 °F 50.4 °F 30.26 in ENE 1.0 mph 1.0 mph 84% 0.00 in 121 W/m2
08:18 55.8 °F 50.7 °F 30.26 in Calm   1.0 mph 83% 0.00 in 118 W/m2
08:24 56.2 °F 50.8 °F 30.27 in Calm   1.0 mph 82% 0.00 in 130 W/m2
08:30 56.9 °F 50.8 °F 30.27 in ENE 1.0 mph 2.0 mph 80% 0.00 in 149 W/m2
08:36 57.4 °F 50.9 °F 30.27 in ENE 1.0 mph 2.0 mph 79% 0.00 in 135 W/m2
08:42 57.8 °F 51.3 °F 30.27 in NE 1.0 mph 2.0 mph 79% 0.00 in 200 W/m2
08:48 58.7 °F 51.5 °F 30.28 in East 2.0 mph 2.0 mph 77% 0.00 in 188 W/m2
08:56 59.0 °F 51.1 °F 30.27 in East 1.0 mph 2.0 mph 75% 0.00 in 193 W/m2
09:02 59.2 °F 52.0 °F 30.27 in ENE 2.0 mph 5.0 mph 77% 0.00 in 255 W/m2
09:08 59.7 °F 52.5 °F 30.27 in ENE 1.0 mph 5.0 mph 77% 0.00 in 251 W/m2
09:14 60.1 °F 52.1 °F 30.27 in NE 1.0 mph 3.0 mph 75% 0.00 in 220 W/m2
09:20 60.4 °F 53.2 °F 30.27 in ENE 1.0 mph 1.0 mph 77% 0.00 in 251 W/m2
09:26 60.8 °F 52.8 °F 30.27 in ENE 1.0 mph 2.0 mph 75% 0.00 in 241 W/m2
09:32 61.0 °F 52.7 °F 30.27 in ENE 2.0 mph 5.0 mph 74% 0.00 in 315 W/m2
09:38 61.6 °F 53.6 °F 30.27 in ENE 2.0 mph 5.0 mph 75% 0.00 in 272 W/m2
09:44 62.1 °F 53.3 °F 30.27 in NE 1.0 mph 2.0 mph 73% 0.00 in 295 W/m2
09:50 62.8 °F 53.6 °F 30.27 in ENE 1.0 mph 5.0 mph 72% 0.00 in 297 W/m2
09:56 63.1 °F 53.5 °F 30.27 in ENE 1.0 mph 5.0 mph 71% 0.00 in 380 W/m2
10:02 63.3 °F 53.3 °F 30.27 in ENE 1.0 mph 5.0 mph 70% 0.00 in 339 W/m2
10:08 64.0 °F 54.8 °F 30.27 in ENE 1.0 mph 5.0 mph 72% 0.00 in 406 W/m2
10:16 64.5 °F 55.3 °F 30.27 in ENE 1.0 mph 2.0 mph 72% 0.00 in 441 W/m2
10:22 65.3 °F 54.5 °F 30.27 in North 2.0 mph 7.0 mph 68% 0.00 in 555 W/m2
10:28 65.7 °F 55.2 °F 30.27 in SE 2.0 mph 7.0 mph 69% 0.00 in 533 W/m2
10:34 65.8 °F 54.1 °F 30.27 in ENE 1.0 mph 2.0 mph 66% 0.00 in 418 W/m2
10:40 65.9 °F 55.4 °F 30.27 in ESE 2.0 mph 2.0 mph 69% 0.00 in 476 W/m2
10:46 66.9 °F 55.2 °F 30.26 in ENE 1.0 mph 2.0 mph 66% 0.00 in 466 W/m2
10:52 67.2 °F 54.2 °F 30.26 in NNE 2.0 mph 5.0 mph 63% 0.00 in 406 W/m2
10:58 66.9 °F 54.7 °F 30.26 in SE 1.0 mph 5.0 mph 65% 0.00 in 438 W/m2
11:04 67.0 °F 55.3 °F 30.27 in ENE 1.0 mph 4.0 mph 66% 0.00 in 455 W/m2
11:10 67.4 °F 55.6 °F 30.27 in NE 1.0 mph 2.0 mph 66% 0.00 in 791 W/m2
11:16 68.1 °F 55.9 °F 30.26 in North 3.0 mph 5.0 mph 65% 0.00 in 698 W/m2
11:22 68.9 °F 56.2 °F 30.26 in NNE 3.0 mph 3.0 mph 64% 0.00 in 761 W/m2
11:28 68.7 °F 56.0 °F 30.26 in SE 2.0 mph 4.0 mph 64% 0.00 in 612 W/m2
11:34 68.9 °F 57.5 °F 30.26 in ENE 2.0 mph 2.0 mph 67% 0.00 in 585 W/m2
11:40 68.5 °F 57.1 °F 30.26 in NE 2.0 mph 2.0 mph 67% 0.00 in 650 W/m2
11:46 69.2 °F 57.4 °F 30.25 in East 2.0 mph 7.0 mph 66% 0.00 in 578 W/m2
11:52 69.2 °F 57.8 °F 30.25 in NNE 2.0 mph 2.0 mph 67% 0.00 in 564 W/m2
11:58 69.6 °F 56.4 °F 30.25 in SSE 2.0 mph 2.0 mph 63% 0.00 in 577 W/m2
12:04 69.4 °F 57.5 °F 30.25 in North 2.0 mph 3.0 mph 66% 0.00 in 608 W/m2
12:10 69.8 °F 57.1 °F 30.24 in ENE 2.0 mph 2.0 mph 64% 0.00 in 612 W/m2
12:16 70.2 °F 58.3 °F 30.24 in ENE 2.0 mph 4.0 mph 66% 0.00 in 703 W/m2
12:24 70.1 °F 56.5 °F 30.24 in ENE 3.0 mph 3.0 mph 62% 0.00 in 752 W/m2
12:30 69.9 °F 57.2 °F 30.24 in NW 2.0 mph 3.0 mph 64% 0.00 in 754 W/m2
12:36 70.4 °F 56.8 °F 30.24 in NE 2.0 mph 6.0 mph 62% 0.00 in 712 W/m2
12:42 69.8 °F 57.1 °F 30.24 in ENE 3.0 mph 6.0 mph 64% 0.00 in 313 W/m2
12:48 70.0 °F 58.1 °F 30.24 in ENE 2.0 mph 6.0 mph 66% 0.00 in 322 W/m2
12:54 70.8 °F 58.4 °F 30.23 in NNW 1.0 mph 5.0 mph 65% 0.00 in 756 W/m2
13:00 71.1 °F 57.4 °F 30.23 in ENE 2.0 mph 3.0 mph 62% 0.00 in 745 W/m2
13:06 70.3 °F 57.1 °F 30.23 in East 3.0 mph 4.0 mph 63% 0.00 in 287 W/m2
13:12 69.9 °F 57.2 °F 30.23 in NE 2.0 mph 2.0 mph 64% 0.00 in 230 W/m2
13:18 69.5 °F 56.8 °F 30.23 in NNE 2.0 mph 2.0 mph 64% 0.00 in 206 W/m2
13:24 69.0 °F 56.7 °F 30.23 in ENE 2.0 mph 3.0 mph 65% 0.00 in 253 W/m2
13:32 69.9 °F 58.4 °F 30.23 in ESE 2.0 mph 2.0 mph 67% 0.00 in 703 W/m2
13:38 71.3 °F 58.5 °F 30.23 in SSE 1.0 mph 2.0 mph 64% 0.00 in 624 W/m2
13:44 71.0 °F 56.4 °F 30.23 in East 2.0 mph 5.0 mph 60% 0.00 in 592 W/m2
13:50 71.8 °F 56.7 °F 30.23 in NNE 3.0 mph 3.0 mph 59% 0.00 in 701 W/m2
13:56 72.1 °F 57.4 °F 30.23 in ESE 2.0 mph 4.0 mph 60% 0.00 in 652 W/m2
14:02 71.6 °F 56.0 °F 30.22 in ENE 3.0 mph 3.0 mph 58% 0.00 in 566 W/m2
14:08 71.5 °F 57.8 °F 30.22 in SE 2.0 mph 3.0 mph 62% 0.00 in 592 W/m2
14:14 71.9 °F 58.6 °F 30.22 in SE 2.0 mph 3.0 mph 63% 0.00 in 548 W/m2
14:20 72.3 °F 58.5 °F 30.22 in East 2.0 mph 2.0 mph 62% 0.00 in 529 W/m2
14:26 72.2 °F 57.5 °F 30.22 in ENE 2.0 mph 2.0 mph 60% 0.00 in 499 W/m2
14:32 72.1 °F 57.4 °F 30.22 in SE 2.0 mph 3.0 mph 60% 0.00 in 496 W/m2
14:38 72.0 °F 56.4 °F 30.21 in ENE 2.0 mph 5.0 mph 58% 0.00 in 482 W/m2
14:44 72.3 °F 58.5 °F 30.21 in SE 2.0 mph 2.0 mph 62% 0.00 in 455 W/m2
14:50 72.1 °F 57.0 °F 30.21 in ENE 1.0 mph 1.0 mph 59% 0.00 in 438 W/m2
14:56 71.7 °F 56.1 °F 30.21 in SE 2.0 mph 5.0 mph 58% 0.00 in 336 W/m2
15:02 71.1 °F 54.6 °F 30.21 in ENE 2.0 mph 2.0 mph 56% 0.00 in 418 W/m2
15:08 71.1 °F 56.5 °F 30.21 in SSE 3.0 mph 5.0 mph 60% 0.00 in 355 W/m2
15:14 71.2 °F 56.6 °F 30.21 in ENE 3.0 mph 3.0 mph 60% 0.00 in 410 W/m2
15:20 71.3 °F 55.8 °F 30.21 in NNE 3.0 mph 5.0 mph 58% 0.00 in 390 W/m2
15:26 71.0 °F 55.5 °F 30.20 in ENE 3.0 mph 5.0 mph 58% 0.00 in 355 W/m2
15:32 71.0 °F 55.9 °F 30.20 in ENE 2.0 mph 3.0 mph 59% 0.00 in 338 W/m2
15:38 71.0 °F 55.5 °F 30.20 in ENE 2.0 mph 3.0 mph 58% 0.00 in 288 W/m2
15:44 70.9 °F 55.9 °F 30.20 in ENE 2.0 mph 4.0 mph 59% 0.00 in 269 W/m2
15:50 70.8 °F 56.2 °F 30.20 in NNW 2.0 mph 2.0 mph 60% 0.00 in 272 W/m2
15:56 70.7 °F 56.1 °F 30.20 in ENE 2.0 mph 2.0 mph 60% 0.00 in 264 W/m2
16:02 70.7 °F 55.7 °F 30.20 in NE 1.0 mph 2.0 mph 59% 0.00 in 248 W/m2
16:10 70.8 °F 55.8 °F 30.20 in ENE 2.0 mph 2.0 mph 59% 0.00 in 264 W/m2
16:16 70.8 °F 55.8 °F 30.20 in NNE 2.0 mph 3.0 mph 59% 0.00 in 251 W/m2
16:22 70.9 °F 55.9 °F 30.20 in NE 2.0 mph 3.0 mph 59% 0.00 in 243 W/m2
16:28 71.0 °F 56.4 °F 30.20 in East 1.0 mph 3.0 mph 60% 0.00 in 221 W/m2
16:34 70.7 °F 56.1 °F 30.20 in East 1.0 mph 2.0 mph 60% 0.00 in 169 W/m2
16:38 70.4 °F 56.3 °F 30.20 in ENE 2.0 mph 4.0 mph 61% 0.00 in 169 W/m2
16:44 70.3 °F 55.3 °F 30.20 in NE 2.0 mph 4.0 mph 59% 0.00 in 188 W/m2
16:50 70.3 °F 56.7 °F 30.20 in ENE 2.0 mph 3.0 mph 62% 0.00 in 211 W/m2
16:56 70.3 °F 55.8 °F 30.20 in SE 2.0 mph 3.0 mph 60% 0.00 in 209 W/m2
17:02 70.5 °F 55.9 °F 30.20 in NE 1.0 mph 3.0 mph 60% 0.00 in 186 W/m2
17:08 70.4 °F 55.8 °F 30.19 in ENE 2.0 mph 4.0 mph 60% 0.00 in 181 W/m2
17:14 70.4 °F 56.3 °F 30.20 in NE 3.0 mph 3.0 mph 61% 0.00 in 171 W/m2
17:20 70.3 °F 55.8 °F 30.20 in ENE 2.0 mph 2.0 mph 60% 0.00 in 155 W/m2
17:26 70.2 °F 57.0 °F 30.20 in ESE 1.0 mph 2.0 mph 63% 0.00 in 130 W/m2
17:32 70.1 °F 56.5 °F 30.20 in NE 1.0 mph 2.0 mph 62% 0.00 in 130 W/m2
17:38 70.0 °F 55.9 °F 30.20 in ENE 1.0 mph 2.0 mph 61% 0.00 in 123 W/m2
17:44 70.0 °F 55.9 °F 30.20 in ENE 1.0 mph 2.0 mph 61% 0.00 in 118 W/m2
17:50 69.8 °F 56.2 °F 30.20 in ENE 1.0 mph 1.0 mph 62% 0.00 in 104 W/m2
17:56 69.7 °F 57.0 °F 30.20 in NE 1.0 mph 1.0 mph 64% 0.00 in 104 W/m2
18:02 69.6 °F 56.4 °F 30.20 in Calm   2.0 mph 63% 0.00 in 100 W/m2
18:08 69.6 °F 56.4 °F 30.20 in ENE 1.0 mph 4.0 mph 63% 0.00 in 105 W/m2
18:14 69.4 °F 56.3 °F 30.20 in ENE 1.0 mph 2.0 mph 63% 0.00 in 100 W/m2
18:20 69.3 °F 56.2 °F 30.20 in Calm     63% 0.00 in 98 W/m2
18:26 69.3 °F 56.2 °F 30.20 in Calm     63% 0.00 in 104 W/m2
18:32 69.4 °F 57.1 °F 30.20 in Calm     65% 0.00 in 109 W/m2
18:38 69.3 °F 57.0 °F 30.20 in Calm     65% 0.00 in 109 W/m2
18:44 69.3 °F 57.0 °F 30.20 in Calm   2.0 mph 65% 0.00 in 98 W/m2
18:50 69.3 °F 57.0 °F 30.21 in Calm     65% 0.00 in 74 W/m2
18:56 69.1 °F 56.4 °F 30.21 in Calm     64% 0.00 in 47 W/m2
19:02 68.7 °F 57.7 °F 30.20 in Calm     68% 0.00 in 33 W/m2
19:08 68.2 °F 56.0 °F 30.20 in Calm   2.0 mph 65% 0.00 in 26 W/m2
19:14 67.7 °F 55.9 °F 30.20 in Calm   1.0 mph 66% 0.00 in 23 W/m2
19:20 67.5 °F 55.7 °F 30.20 in Calm     66% 0.00 in 14 W/m2
19:26 67.0 °F 56.1 °F 30.20 in Calm     68% 0.00 in 11 W/m2
19:32 66.5 °F 56.0 °F 30.20 in Calm     69% 0.00 in 9 W/m2
19:38 65.9 °F 55.4 °F 30.20 in Calm     69% 0.00 in 5 W/m2
19:44 65.6 °F 55.5 °F 30.19 in Calm     70% 0.00 in 0 W/m2
19:50 65.2 °F 55.6 °F 30.20 in Calm     71% 0.00 in 0 W/m2
19:56 64.6 °F 55.7 °F 30.20 in Calm     73% 0.00 in 0 W/m2
20:02 63.9 °F 56.2 °F 30.20 in Calm     76% 0.00 in 0 W/m2
20:08 63.3 °F 55.6 °F 30.20 in Calm     76% 0.00 in 0 W/m2
20:14 62.9 °F 55.6 °F 30.20 in Calm   1.0 mph 77% 0.00 in 0 W/m2
20:20 62.7 °F 55.4 °F 30.20 in Calm     77% 0.00 in 0 W/m2
20:26 62.5 °F 55.2 °F 30.20 in Calm     77% 0.00 in 0 W/m2
20:32 62.5 °F 55.2 °F 30.20 in Calm     77% 0.00 in 0 W/m2
20:38 62.2 °F 54.9 °F 30.20 in Calm     77% 0.00 in 0 W/m2
20:44 62.1 °F 55.2 °F 30.20 in Calm     78% 0.00 in 0 W/m2
20:50 62.2 °F 55.3 °F 30.20 in Calm     78% 0.00 in 0 W/m2
20:56 62.3 °F 55.0 °F 30.20 in Calm     77% 0.00 in 0 W/m2
21:02 62.5 °F 55.2 °F 30.20 in Calm     77% 0.00 in 0 W/m2
21:08 62.5 °F 54.8 °F 30.20 in Calm     76% 0.00 in 0 W/m2
21:14 62.5 °F 54.8 °F 30.20 in Calm     76% 0.00 in 0 W/m2
21:20 62.5 °F 55.2 °F 30.20 in Calm     77% 0.00 in 0 W/m2
21:26 62.4 °F 55.4 °F 30.20 in Calm     78% 0.00 in 0 W/m2
21:32 62.2 °F 54.9 °F 30.20 in Calm     77% 0.00 in 0 W/m2
21:38 61.8 °F 54.9 °F 30.20 in Calm     78% 0.00 in 0 W/m2
21:44 61.5 °F 54.9 °F 30.20 in Calm     79% 0.00 in 0 W/m2
21:50 60.9 °F 55.0 °F 30.20 in Calm   1.0 mph 81% 0.00 in 0 W/m2
21:56 60.4 °F 54.5 °F 30.20 in Calm   1.0 mph 81% 0.00 in 0 W/m2
22:02 59.9 °F 54.7 °F 30.20 in Calm     83% 0.00 in 0 W/m2
22:08 59.7 °F 54.5 °F 30.20 in Calm     83% 0.00 in 0 W/m2
22:14 59.4 °F 54.6 °F 30.20 in Calm     84% 0.00 in 0 W/m2
22:20 59.1 °F 54.6 °F 30.20 in Calm     85% 0.00 in 0 W/m2
22:26 58.8 °F 54.6 °F 30.20 in Calm     86% 0.00 in 0 W/m2
22:32 58.5 °F 54.3 °F 30.20 in Calm     86% 0.00 in 0 W/m2
22:38 58.3 °F 54.4 °F 30.20 in Calm     87% 0.00 in 0 W/m2
22:44 58.2 °F 54.3 °F 30.20 in Calm     87% 0.00 in 0 W/m2
22:50 58.0 °F 54.2 °F 30.20 in Calm     87% 0.00 in 0 W/m2
22:56 57.9 °F 54.4 °F 30.19 in Calm     88% 0.00 in 0 W/m2
23:02 57.9 °F 54.4 °F 30.19 in Calm     88% 0.00 in 0 W/m2
23:08 57.8 °F 54.3 °F 30.19 in Calm     88% 0.00 in 0 W/m2
23:22 57.4 °F 54.2 °F 30.20 in Calm   2.0 mph 89% 0.00 in 0 W/m2
23:28 57.3 °F 54.1 °F 30.19 in Calm   2.0 mph 89% 0.00 in 0 W/m2
23:36 57.2 °F 54.0 °F 30.19 in Calm     89% 0.00 in 0 W/m2
23:42 57.1 °F 54.2 °F 30.19 in Calm     90% 0.00 in 0 W/m2
23:48 56.9 °F 53.7 °F 30.20 in Calm   2.0 mph 89% 0.00 in 0 W/m2
23:50 56.9 °F 54.0 °F 30.20 in Calm     90% 0.00 in 0 W/m2
23:52 57.0 °F 53.8 °F 30.20 in Calm     89% 0.00 in 0 W/m2
23:54 57.0 °F 53.8 °F 30.19 in Calm   1.0 mph 89% 0.00 in 0 W/m2
23:56 57.0 °F 53.8 °F 30.19 in Calm   1.0 mph 89% 0.00 in 0 W/m2
Country Meadow, Clay, NY, USA
Compliments of Weather Underground - 2 mb